This is the latest recevied weather packets stored in our database for station/object WA4IKQ. If no packets are shown the sender has not sent any weather packets the latest 10 day(s).
| Time | Temp. | Humidity | Pressure | Rain* | Wind** | Luminosity | Snow |
|---|---|---|---|---|---|---|---|
| 1777670610 | 32.78° C | 39% | 1008.4 hPa | 0 mm | 1.79 m/s, 195° | - | - |
| 1777670394 | 32.78° C | 40% | 1008.4 hPa | 0 mm | 0.45 m/s, 239° | - | - |
| 1777670303 | 32.78° C | 40% | 1008.4 hPa | 0 mm | 0.45 m/s, 239° | - | - |
| 1777670081 | 33.33° C | 40% | 1008.5 hPa | 0 mm | 2.68 m/s, 156° | - | - |
| 1777670010 | 33.33° C | 40% | 1008.5 hPa | 0 mm | 2.68 m/s, 156° | - | - |
| 1777669812 | 33.33° C | 39% | 1008.7 hPa | 0 mm | 1.79 m/s, 156° | - | - |
| 1777669704 | 33.33° C | 39% | 1008.7 hPa | 0 mm | 1.79 m/s, 156° | - | - |
| 1777669219 | 33.33° C | 38% | 1008.7 hPa | 0 mm | 2.24 m/s, 181° | - | - |
| 1777669186 | 33.33° C | 38% | 1008.7 hPa | 0 mm | 2.24 m/s, 181° | - | - |
| 1777669103 | 33.33° C | 38% | 1008.7 hPa | 0 mm | 2.24 m/s, 181° | - | - |
| 1777668869 | 33.33° C | 39% | 1008.7 hPa | 0 mm | 1.79 m/s, 228° | - | - |
| 1777668804 | 33.33° C | 39% | 1008.7 hPa | 0 mm | 1.79 m/s, 228° | - | - |
| 1777668564 | 33.89° C | 38% | 1008.8 hPa | 0 mm | 2.24 m/s, 172° | - | - |
| 1777668259 | 33.33° C | 39% | 1008.8 hPa | 0 mm | 0 m/s | - | - |
| 1777668208 | 33.33° C | 39% | 1008.8 hPa | 0 mm | 0 m/s | - | - |
| 1777667966 | 33.33° C | 40% | 1008.8 hPa | 0 mm | 1.79 m/s, 180° | - | - |
| 1777667652 | 33.33° C | 40% | 1008.9 hPa | 0 mm | 0 m/s | - | - |
| 1777667354 | 33.33° C | 40% | 1009 hPa | 0 mm | 0 m/s | - | - |
| 1777666802 | 33.89° C | 39% | 1009.2 hPa | 0 mm | 1.79 m/s, 198° | - | - |
| 1777666755 | 33.89° C | 39% | 1009.2 hPa | 0 mm | 1.79 m/s, 198° | - | - |
| 1777666700 | 33.89° C | 39% | 1009.2 hPa | 0 mm | 1.79 m/s, 198° | - | - |
| 1777666223 | 33.33° C | 40% | 1009.2 hPa | 0 mm | 0 m/s | - | - |
| 1777665538 | 33.33° C | 39% | 1009.3 hPa | 0 mm | 1.34 m/s, 274° | - | - |
| 1777665325 | 33.33° C | 40% | 1009.3 hPa | 0 mm | 0.89 m/s, 235° | - | - |
| 1777664984 | 33.33° C | 40% | 1009.4 hPa | 0 mm | 0.89 m/s, 141° | - | - |
* Rain latest hour (hover to see other rain measurements)
** Current wind speed in m/s (hover to see current wind gust speed)